Time;durP1;ratioP1;P1;durP2;ratioP2;P2;SDS_P1;SDS_P2;PMS_P1;PMS_P2;Temp;Humidity;BMP_temperature;BMP_pressure;BME280_temperature;BME280_humidity;BME280_pressure;Samples;Min_cycle;Max_cycle;Signal;HPM_P1;HPM_P2
2021/05/13 00:01:36;;;;;;;10.02;4.90;;;15.00;99.90;;;;;;5013306;28;20026;-76
2021/05/13 00:04:02;;;;;;;8.23;5.13;;;14.90;99.90;;;;;;5009690;28;20034;-77
2021/05/13 00:06:34;;;;;;;7.38;4.82;;;14.90;99.90;;;;;;5006667;28;20033;-77
2021/05/13 00:09:01;;;;;;;;;;;14.90;99.90;;;;;;4991353;28;20038;-77
2021/05/13 00:11:33;;;;;;;7.95;4.38;;;14.90;99.90;;;;;;4992728;28;20303;-77
2021/05/13 00:14:00;;;;;;;5.82;4.00;;;15.00;99.90;;;;;;5010532;28;20032;-78
2021/05/13 00:16:32;;;;;;;9.23;4.15;;;15.00;99.90;;;;;;4994272;28;20034;-77
2021/05/13 00:19:00;;;;;;;5.53;4.15;;;15.00;99.90;;;;;;4993567;28;20030;-77
2021/05/13 00:21:26;;;;;;;4.05;3.55;;;15.00;99.90;;;;;;5006830;28;20026;-78
2021/05/13 00:23:52;;;;;;;8.15;4.53;;;15.10;99.90;;;;;;5013636;28;20034;-78
2021/05/13 00:26:40;;;;;;;3.92;3.63;;;15.10;99.90;;;;;;5009054;28;20395;-78
2021/05/13 00:29:10;;;;;;;4.05;3.33;;;15.10;99.90;;;;;;5010295;28;20034;-77
2021/05/13 00:31:37;;;;;;;7.22;4.53;;;15.20;99.90;;;;;;4994841;28;20020;-78
2021/05/13 00:34:03;;;;;;;5.55;3.60;;;15.20;99.90;;;;;;4994460;28;20033;-78
2021/05/13 00:36:30;;;;;;;9.65;4.43;;;15.20;99.90;;;;;;4994179;28;20030;-77
2021/05/13 00:38:57;;;;;;;4.05;3.00;;;15.20;99.90;;;;;;5009907;28;20503;-77
2021/05/13 00:41:23;;;;;;;5.50;3.58;;;15.10;99.90;;;;;;5005889;28;20574;-77
2021/05/13 00:43:49;;;;;;;7.75;3.72;;;15.10;99.90;;;;;;5013265;28;20376;-78
2021/05/13 00:46:16;;;;;;;4.72;4.00;;;15.10;99.90;;;;;;4995666;28;20025;-78
2021/05/13 00:48:45;;;;;;;8.07;3.47;;;15.10;99.90;;;;;;5009675;28;20399;-78
2021/05/13 00:51:11;;;;;;;7.88;3.85;;;15.20;99.90;;;;;;5012176;28;20076;-78
2021/05/13 00:53:40;;;;;;;8.32;4.07;;;15.20;99.90;;;;;;5012050;28;20030;-78
2021/05/13 00:56:06;;;;;;;5.72;2.78;;;15.20;99.90;;;;;;4991386;28;20385;-78
2021/05/13 00:58:34;;;;;;;4.80;3.17;;;15.30;99.90;;;;;;5010785;28;20037;-78
2021/05/13 01:01:06;;;;;;;9.45;4.40;;;15.20;99.90;;;;;;5009409;28;20499;-77
2021/05/13 01:03:34;;;;;;;5.60;4.70;;;15.20;99.90;;;;;;5012133;28;20061;-78
2021/05/13 01:06:08;;;;;;;7.43;4.40;;;15.30;99.90;;;;;;5012408;28;20176;-78
2021/05/13 01:08:34;;;;;;;7.60;3.85;;;15.30;99.90;;;;;;4993505;28;20518;-77
2021/05/13 01:11:00;;;;;;;7.00;3.97;;;15.40;99.90;;;;;;5009816;28;20037;-78
2021/05/13 01:13:27;;;;;;;4.38;3.38;;;15.30;99.90;;;;;;4993972;28;20022;-78
2021/05/13 01:16:13;;;;;;;5.38;3.50;;;15.40;99.90;;;;;;4995787;28;20401;-78
2021/05/13 01:18:41;;;;;;;5.57;3.88;;;15.40;99.90;;;;;;4990369;28;20025;-77
2021/05/13 01:21:06;;;;;;;9.13;4.18;;;15.40;99.90;;;;;;5013285;28;20029;-78
2021/05/13 01:23:32;;;;;;;6.75;4.00;;;15.50;99.90;;;;;;4994946;28;20886;-77
2021/05/13 01:25:58;;;;;;;3.55;3.10;;;15.40;99.90;;;;;;4993910;28;20045;-77
2021/05/13 01:28:26;;;;;;;6.03;4.32;;;15.30;99.90;;;;;;4991915;28;20462;-77
2021/05/13 01:30:53;;;;;;;11.02;4.13;;;15.30;99.90;;;;;;4997688;28;20060;-77
2021/05/13 01:33:21;;;;;;;4.40;4.00;;;15.20;99.90;;;;;;5011800;28;20058;-78
2021/05/13 01:35:48;;;;;;;7.68;4.35;;;15.20;99.90;;;;;;5012311;28;20018;-77
2021/05/13 01:38:20;;;;;;;6.00;4.07;;;15.30;99.90;;;;;;4991843;28;20400;-77
2021/05/13 01:41:01;;;;;;;7.85;4.78;;;15.30;99.90;;;;;;4995049;28;20034;-77
2021/05/13 01:43:31;;;;;;;11.73;6.40;;;15.30;99.90;;;;;;5005388;28;20021;-77
2021/05/13 01:45:59;;;;;;;8.35;3.90;;;15.30;99.90;;;;;;5009876;28;20707;-77
2021/05/13 01:48:25;;;;;;;6.45;4.22;;;15.30;99.90;;;;;;5006753;28;20045;-78
2021/05/13 01:50:51;;;;;;;5.60;4.55;;;15.30;99.90;;;;;;5012483;28;20006;-79
2021/05/13 01:53:17;;;;;;;9.18;4.90;;;15.30;99.90;;;;;;5014148;28;20091;-77
2021/05/13 01:55:43;;;;;;;11.02;4.40;;;15.30;99.90;;;;;;5010586;28;20026;-78
2021/05/13 01:58:09;;;;;;;8.80;4.63;;;15.30;99.90;;;;;;4991069;28;20514;-77
2021/05/13 02:00:36;;;;;;;3.92;3.50;;;15.30;99.90;;;;;;5017259;28;20092;-78
2021/05/13 02:03:04;;;;;;;6.40;3.78;;;15.40;99.90;;;;;;5019482;28;20022;-78
2021/05/13 02:05:30;;;;;;;5.38;3.95;;;15.50;99.90;;;;;;4994366;28;20029;-78
2021/05/13 02:07:56;;;;;;;5.53;4.13;;;15.50;99.90;;;;;;4992462;28;20033;-78
2021/05/13 02:10:23;;;;;;;6.13;3.40;;;15.50;99.90;;;;;;5005469;28;20021;-78
2021/05/13 02:12:49;;;;;;;8.02;3.90;;;15.50;99.90;;;;;;4993972;28;20030;-78
2021/05/13 02:15:17;;;;;;;12.05;3.75;;;15.50;99.90;;;;;;4994525;28;20024;-77
2021/05/13 02:17:44;;;;;;;6.50;3.80;;;15.50;99.90;;;;;;5015476;28;20341;-78
2021/05/13 02:20:12;;;;;;;6.93;4.78;;;15.40;99.90;;;;;;5016186;28;20483;-77
2021/05/13 02:22:38;;;;;;;7.43;4.55;;;15.40;99.90;;;;;;5011609;28;20022;-77
2021/05/13 02:25:05;;;;;;;7.53;5.20;;;15.40;99.90;;;;;;4999084;28;20574;-78
2021/05/13 02:27:31;;;;;;;7.32;5.05;;;15.30;99.90;;;;;;5013463;28;20033;-78
2021/05/13 02:29:57;;;;;;;6.70;5.15;;;15.30;99.90;;;;;;5000595;28;20037;-77
2021/05/13 02:32:23;;;;;;;7.55;5.28;;;15.30;99.90;;;;;;4993557;28;20446;-77
2021/05/13 02:34:49;;;;;;;8.98;5.80;;;15.30;99.90;;;;;;5016994;28;20029;-78
2021/05/13 02:37:14;;;;;;;8.95;5.55;;;15.20;99.90;;;;;;5009795;28;20580;-79
2021/05/13 02:39:40;;;;;;;5.53;4.95;;;15.20;99.90;;;;;;5015143;28;20044;-78
2021/05/13 02:42:06;;;;;;;5.60;4.82;;;15.20;99.90;;;;;;5017883;28;20029;-77
2021/05/13 02:44:32;;;;;;;7.10;4.82;;;15.10;99.90;;;;;;5037177;28;20065;-77
2021/05/13 02:46:58;;;;;;;4.82;4.20;;;15.10;99.90;;;;;;5011620;28;20044;-77
2021/05/13 02:49:23;;;;;;;7.72;5.75;;;15.10;99.90;;;;;;5011836;28;20443;-77
2021/05/13 02:51:49;;;;;;;8.00;5.03;;;15.10;99.90;;;;;;5013786;28;20084;-77
2021/05/13 02:54:15;;;;;;;4.25;3.53;;;15.10;99.90;;;;;;5012385;28;20022;-78
2021/05/13 02:56:41;;;;;;;5.60;5.00;;;15.10;99.90;;;;;;4997439;28;20022;-78
2021/05/13 02:59:08;;;;;;;8.15;4.50;;;15.10;99.90;;;;;;4997680;28;20030;-77
2021/05/13 03:01:34;;;;;;;6.47;5.10;;;15.10;99.90;;;;;;5015724;28;20063;-78
2021/05/13 03:04:00;;;;;;;5.75;5.18;;;15.10;99.90;;;;;;5011693;28;20455;-77
2021/05/13 03:06:27;;;;;;;5.80;4.80;;;15.10;99.90;;;;;;5015165;28;20033;-77
2021/05/13 03:08:54;;;;;;;11.02;6.53;;;15.10;99.90;;;;;;5012554;28;20030;-77
2021/05/13 03:11:25;;;;;;;19.65;6.40;;;15.10;99.90;;;;;;4994865;28;20036;-78
2021/05/13 03:13:55;;;;;;;12.90;5.75;;;15.10;99.90;;;;;;5003756;28;20026;-78
2021/05/13 03:16:22;;;;;;;6.35;4.97;;;15.10;99.90;;;;;;4993815;28;20392;-78
2021/05/13 03:18:53;;;;;;;7.97;5.40;;;15.10;99.90;;;;;;4993352;28;20026;-78
2021/05/13 03:26:56;;;;;;;11.23;7.43;;;15.00;99.90;;;;;;5010737;28;20109;-77
2021/05/13 03:29:11;;;;;;;8.25;7.43;;;15.10;99.90;;;;;;5009552;28;20037;-77
2021/05/13 03:31:37;;;;;;;7.68;6.88;;;15.00;99.90;;;;;;5007720;28;20022;-77
2021/05/13 03:34:03;;;;;;;8.15;6.70;;;15.00;99.90;;;;;;4996726;28;20472;-78
2021/05/13 03:36:31;;;;;;;12.23;6.50;;;15.00;99.90;;;;;;4989471;28;20432;-77
2021/05/13 03:38:58;;;;;;;6.95;6.32;;;15.00;99.90;;;;;;5014555;28;20022;-78
2021/05/13 03:41:23;;;;;;;10.82;6.60;;;14.90;99.90;;;;;;4994401;28;20112;-79
2021/05/13 03:43:49;;;;;;;13.23;6.30;;;14.90;99.90;;;;;;5018005;28;20052;-79
2021/05/13 03:46:15;;;;;;;6.88;5.95;;;14.80;99.90;;;;;;5018476;28;20053;-79
2021/05/13 03:48:41;;;;;;;9.77;6.03;;;14.80;99.90;;;;;;4999849;28;20032;-79
2021/05/13 03:51:06;;;;;;;4.80;4.40;;;14.80;99.90;;;;;;4998471;28;20041;-78
2021/05/13 03:53:32;;;;;;;7.90;4.65;;;14.80;99.90;;;;;;4996473;28;20034;-78
2021/05/13 03:55:58;;;;;;;7.38;4.38;;;14.80;99.90;;;;;;5003351;28;20025;-78
2021/05/13 03:58:28;;;;;;;7.72;5.82;;;14.80;99.90;;;;;;5012838;28;20022;-77
2021/05/13 04:03:20;;;;;;;7.13;5.25;;;14.70;99.90;;;;;;5014241;28;20026;-78
2021/05/13 04:05:47;;;;;;;5.50;4.53;;;14.80;99.90;;;;;;5014310;28;20044;-78
2021/05/13 04:08:13;;;;;;;5.15;4.65;;;14.90;99.90;;;;;;5002355;28;20495;-78
2021/05/13 04:10:41;;;;;;;7.15;4.75;;;14.90;99.90;;;;;;4992189;28;20068;-79
2021/05/13 04:13:10;;;;;;;8.68;4.30;;;15.00;99.90;;;;;;5012407;28;20119;-78
2021/05/13 04:15:36;;;;;;;5.47;4.82;;;15.10;99.90;;;;;;5013823;28;20126;-78
2021/05/13 04:18:02;;;;;;;6.28;4.13;;;15.10;99.90;;;;;;5002305;28;20080;-77
2021/05/13 04:20:30;;;;;;;3.97;3.63;;;15.20;99.90;;;;;;4992816;28;20033;-78
2021/05/13 04:22:55;;;;;;;13.52;5.07;;;15.30;99.90;;;;;;4996847;28;20022;-77
2021/05/13 04:25:21;;;;;;;8.27;3.90;;;15.40;99.90;;;;;;5013753;28;20569;-78
2021/05/13 04:27:50;;;;;;;4.90;4.20;;;15.40;99.90;;;;;;5014508;28;20026;-78
2021/05/13 04:30:16;;;;;;;9.52;4.40;;;15.40;99.90;;;;;;4996263;28;20026;-79
2021/05/13 04:32:42;;;;;;;4.88;3.45;;;15.30;99.90;;;;;;4998794;28;20022;-78
2021/05/13 04:35:08;;;;;;;9.20;4.07;;;15.40;99.90;;;;;;4995685;28;20052;-78
2021/05/13 04:37:34;;;;;;;9.60;4.82;;;15.40;99.90;;;;;;5013064;28;20038;-78
2021/05/13 04:40:00;;;;;;;7.40;3.95;;;15.30;99.90;;;;;;5015696;28;20177;-78
2021/05/13 04:42:26;;;;;;;9.82;4.90;;;15.30;99.90;;;;;;4998297;28;20109;-77
2021/05/13 04:44:53;;;;;;;7.88;5.32;;;15.30;99.90;;;;;;4987899;28;20058;-78
2021/05/13 04:47:27;;;;;;;10.80;5.35;;;15.30;99.90;;;;;;4986534;28;20022;-77
2021/05/13 04:49:55;;;;;;;8.82;6.00;;;15.30;99.90;;;;;;5013291;28;20061;-77
2021/05/13 04:52:23;;;;;;;21.70;8.88;;;15.30;99.90;;;;;;4994978;28;20021;-78
2021/05/13 04:54:58;;;;;;;24.40;11.77;;;15.30;99.90;;;;;;5012942;28;20041;-78
2021/05/13 04:57:24;;;;;;;13.55;7.00;;;15.40;99.90;;;;;;4989092;28;20025;-78
2021/05/13 04:59:50;;;;;;;10.43;6.72;;;15.40;99.90;;;;;;5013700;28;20057;-77
2021/05/13 05:02:16;;;;;;;5.97;4.85;;;15.50;99.90;;;;;;5011638;28;20495;-79
2021/05/13 05:04:42;;;;;;;5.93;4.80;;;15.40;99.90;;;;;;4999815;28;20578;-78
2021/05/13 05:07:08;;;;;;;5.57;3.88;;;15.40;99.90;;;;;;4989906;28;20038;-78
2021/05/13 05:09:34;;;;;;;9.60;4.53;;;15.30;99.90;;;;;;4998706;28;20026;-80
2021/05/13 05:12:00;;;;;;;5.78;5.25;;;15.30;99.90;;;;;;4997071;28;20041;-78
2021/05/13 05:14:26;;;;;;;7.22;4.60;;;15.30;99.90;;;;;;4999456;28;20428;-77
2021/05/13 05:16:52;;;;;;;8.10;4.43;;;15.30;99.90;;;;;;5008472;28;20113;-79
2021/05/13 05:19:18;;;;;;;3.38;3.08;;;15.30;99.90;;;;;;5009230;28;20404;-78
2021/05/13 05:21:44;;;;;;;3.50;2.45;;;15.30;99.90;;;;;;5006330;28;20938;-77
2021/05/13 05:24:10;;;;;;;5.25;2.10;;;15.30;99.90;;;;;;5021813;28;20030;-78
2021/05/13 05:26:37;;;;;;;4.32;3.00;;;15.20;99.90;;;;;;5011161;28;20026;-77
2021/05/13 05:29:03;;;;;;;8.38;2.95;;;15.20;99.90;;;;;;5008936;28;20041;-78
2021/05/13 05:31:29;;;;;;;3.55;3.08;;;15.10;99.90;;;;;;5008510;28;20025;-77
2021/05/13 05:33:55;;;;;;;4.43;2.80;;;15.10;99.90;;;;;;5006958;28;20026;-78
2021/05/13 05:36:23;;;;;;;3.38;2.97;;;15.10;99.90;;;;;;4986646;28;20459;-78
2021/05/13 05:38:49;;;;;;;5.25;2.78;;;15.00;99.90;;;;;;5013936;28;20033;-77
2021/05/13 05:41:17;;;;;;;2.60;2.40;;;15.00;99.90;;;;;;5007740;28;20037;-72
2021/05/13 05:43:43;;;;;;;5.95;2.45;;;14.90;99.90;;;;;;5008418;28;20073;-71
2021/05/13 05:46:12;;;;;;;5.28;2.42;;;15.00;99.90;;;;;;5008123;28;20484;-72
2021/05/13 05:48:39;;;;;;;3.35;2.95;;;14.90;99.90;;;;;;5002669;28;20030;-73
2021/05/13 05:51:05;;;;;;;4.55;3.38;;;14.80;99.90;;;;;;5002630;28;20029;-72
2021/05/13 05:53:31;;;;;;;4.55;2.67;;;14.80;99.90;;;;;;4983186;28;20026;-71
2021/05/13 05:55:57;;;;;;;2.47;2.13;;;14.70;99.90;;;;;;5003902;28;20033;-72
2021/05/13 05:58:22;;;;;;;3.97;1.98;;;14.80;99.90;;;;;;4987004;28;20021;-73
2021/05/13 06:00:48;;;;;;;2.63;2.42;;;14.80;99.90;;;;;;4985205;28;20477;-73
2021/05/13 06:03:14;;;;;;;3.83;2.13;;;14.70;99.90;;;;;;5003115;28;20124;-73
2021/05/13 06:05:40;;;;;;;2.28;2.08;;;14.70;99.90;;;;;;5002577;28;20034;-73
2021/05/13 06:08:06;;;;;;;1.92;1.77;;;14.60;99.90;;;;;;5003885;28;20048;-71
2021/05/13 06:10:32;;;;;;;6.82;3.00;;;14.50;99.90;;;;;;5003900;28;20084;-71
2021/05/13 06:12:58;;;;;;;2.55;1.80;;;14.50;99.90;;;;;;4987659;28;20026;-71
2021/05/13 06:15:25;;;;;;;4.82;1.98;;;14.50;99.90;;;;;;5008815;28;20026;-74
2021/05/13 06:17:51;;;;;;;3.55;1.38;;;14.50;99.90;;;;;;5010642;28;20082;-73
2021/05/13 06:20:23;;;;;;;2.95;1.67;;;14.50;99.90;;;;;;5011379;28;20456;-73
2021/05/13 06:22:50;;;;;;;1.83;1.20;;;14.50;99.90;;;;;;4992813;28;20125;-73
2021/05/13 06:25:17;;;;;;;1.40;1.13;;;14.60;99.90;;;;;;5010508;28;20048;-74
2021/05/13 06:27:43;;;;;;;1.58;1.40;;;14.60;99.90;;;;;;4992831;28;20024;-74
2021/05/13 06:30:10;;;;;;;1.05;1.05;;;14.60;99.90;;;;;;5010464;28;20022;-71
2021/05/13 06:32:36;;;;;;;2.13;1.92;;;14.60;99.90;;;;;;5001517;28;20041;-73
2021/05/13 06:35:03;;;;;;;7.38;1.88;;;14.50;99.90;;;;;;5009843;28;20061;-74
2021/05/13 06:37:29;;;;;;;5.45;1.50;;;14.60;99.90;;;;;;4992769;28;20564;-71
2021/05/13 06:39:55;;;;;;;1.67;1.58;;;14.50;99.90;;;;;;4990137;28;20113;-73
2021/05/13 06:42:21;;;;;;;7.30;4.07;;;14.50;99.90;;;;;;5008663;28;20044;-73
2021/05/13 06:44:46;;;;;;;7.28;3.97;;;14.50;99.90;;;;;;5009291;28;20033;-72
2021/05/13 06:47:12;;;;;;;6.32;3.45;;;14.50;99.90;;;;;;5008066;28;20430;-74
2021/05/13 06:49:39;;;;;;;6.85;3.53;;;14.50;99.90;;;;;;5009818;28;20117;-73
2021/05/13 06:52:06;;;;;;;10.18;2.60;;;14.50;99.90;;;;;;5010058;28;20022;-72
2021/05/13 06:54:33;;;;;;;8.82;2.33;;;14.50;99.90;;;;;;5001180;28;20124;-74
2021/05/13 06:57:00;;;;;;;3.13;1.77;;;14.50;99.90;;;;;;4993397;28;20492;-72
2021/05/13 06:59:26;;;;;;;4.68;1.85;;;14.50;99.90;;;;;;4996695;28;20573;-72
2021/05/13 07:01:56;;;;;;;2.33;1.90;;;14.60;99.90;;;;;;5012146;28;20522;-73
2021/05/13 07:04:28;;;;;;;3.45;1.70;;;14.60;99.90;;;;;;4992302;28;20034;-73
2021/05/13 07:06:54;;;;;;;3.28;2.42;;;14.60;99.90;;;;;;5013895;28;20022;-74
2021/05/13 07:09:20;;;;;;;5.82;2.25;;;14.50;99.90;;;;;;5010032;28;20471;-67
2021/05/13 07:11:45;;;;;;;5.57;1.95;;;14.60;99.90;;;;;;5011564;28;20391;-68
2021/05/13 07:14:11;;;;;;;2.35;1.85;;;14.50;99.90;;;;;;5010465;28;20022;-67
2021/05/13 07:16:37;;;;;;;1.90;1.77;;;14.60;99.90;;;;;;4995051;28;20026;-70
2021/05/13 07:19:03;;;;;;;6.57;2.75;;;14.50;99.90;;;;;;5013068;28;20042;-71
2021/05/13 07:21:30;;;;;;;4.63;2.05;;;14.40;99.90;;;;;;4996226;28;20281;-70
2021/05/13 07:23:55;;;;;;;8.38;2.00;;;14.40;99.90;;;;;;5012118;28;20106;-71
2021/05/13 07:26:22;;;;;;;3.05;1.00;;;14.30;99.90;;;;;;4994043;28;20109;-73
2021/05/13 07:28:49;;;;;;;1.98;1.00;;;14.00;99.90;;;;;;4998188;28;20034;-74
2021/05/13 07:31:15;;;;;;;5.43;1.17;;;13.90;99.90;;;;;;5013813;28;20067;-73
2021/05/13 07:33:41;;;;;;;4.05;1.55;;;13.90;99.90;;;;;;5012658;28;20438;-72
2021/05/13 07:36:07;;;;;;;2.42;1.20;;;13.90;99.90;;;;;;4996413;28;20133;-76
2021/05/13 07:38:34;;;;;;;3.25;1.83;;;13.90;99.90;;;;;;4995947;28;20041;-73
2021/05/13 07:41:06;;;;;;;4.70;1.52;;;14.00;99.90;;;;;;5010538;28;20021;-75
2021/05/13 07:43:34;;;;;;;2.30;1.42;;;14.00;99.90;;;;;;4999324;28;20025;-74
2021/05/13 07:46:01;;;;;;;4.07;1.33;;;14.10;99.90;;;;;;5015800;28;20443;-74
2021/05/13 07:48:29;;;;;;;2.65;1.83;;;14.00;99.90;;;;;;5012305;28;20041;-74
2021/05/13 07:50:55;;;;;;;3.53;1.70;;;14.10;99.90;;;;;;5012930;28;20075;-73
2021/05/13 07:53:21;;;;;;;2.38;1.75;;;14.30;99.90;;;;;;4990428;28;20092;-73
2021/05/13 07:55:47;;;;;;;2.10;1.98;;;14.40;99.90;;;;;;5004670;28;20030;-73
2021/05/13 07:58:13;;;;;;;3.00;1.50;;;14.60;99.90;;;;;;4994551;28;20026;-73
2021/05/13 08:00:40;;;;;;;0.98;0.98;;;14.80;99.90;;;;;;4992651;28;20040;-71
2021/05/13 08:03:07;;;;;;;1.13;0.75;;;15.00;99.90;;;;;;5011672;28;20041;-72
2021/05/13 08:05:33;;;;;;;1.75;1.60;;;15.10;99.90;;;;;;5011936;28;20072;-73
2021/05/13 08:07:58;;;;;;;2.40;1.85;;;15.30;99.90;;;;;;5006583;28;20025;-73
2021/05/13 08:10:25;;;;;;;1.65;1.10;;;15.50;99.90;;;;;;4988470;28;20029;-74
2021/05/13 08:12:51;;;;;;;1.30;1.23;;;15.50;99.90;;;;;;4990995;28;20095;-73
2021/05/13 08:15:17;;;;;;;3.03;1.02;;;15.60;99.90;;;;;;4988619;28;20034;-73
2021/05/13 08:17:46;;;;;;;1.20;1.10;;;15.70;99.90;;;;;;4987401;28;20111;-72
2021/05/13 08:20:14;;;;;;;1.33;1.20;;;15.70;99.90;;;;;;5007378;28;20041;-73
2021/05/13 08:22:42;;;;;;;2.30;1.50;;;15.80;99.90;;;;;;5010384;28;20401;-74
2021/05/13 08:25:09;;;;;;;2.45;1.08;;;15.70;99.90;;;;;;5010662;28;20017;-72
2021/05/13 08:27:36;;;;;;;2.40;1.25;;;15.60;99.90;;;;;;5012338;28;20109;-74
2021/05/13 08:30:04;;;;;;;4.63;1.50;;;15.70;99.90;;;;;;5013126;28;20022;-74
2021/05/13 08:32:29;;;;;;;1.30;1.17;;;15.90;99.90;;;;;;5014704;28;20037;-72
2021/05/13 08:34:56;;;;;;;1.48;1.02;;;16.20;99.90;;;;;;5013838;28;20549;-73
2021/05/13 08:37:22;;;;;;;7.03;1.08;;;16.30;99.90;;;;;;5011842;28;20092;-73
2021/05/13 08:39:48;;;;;;;5.20;1.25;;;16.50;99.90;;;;;;5012077;28;20072;-72
2021/05/13 08:42:15;;;;;;;2.83;0.50;;;16.60;99.90;;;;;;4994449;28;20491;-73
2021/05/13 08:44:42;;;;;;;3.83;1.10;;;16.60;99.90;;;;;;5011039;28;20041;-73
2021/05/13 08:47:08;;;;;;;5.38;1.73;;;16.80;99.90;;;;;;5008670;28;20667;-73
2021/05/13 08:49:38;;;;;;;3.92;1.15;;;16.80;99.90;;;;;;5011992;28;20542;-74
2021/05/13 08:52:16;;;;;;;4.25;1.20;;;16.70;99.90;;;;;;5012472;28;20025;-73
2021/05/13 08:54:56;;;;;;;2.70;1.02;;;16.60;99.90;;;;;;5011542;28;20029;-72
2021/05/13 08:57:24;;;;;;;3.08;1.58;;;16.70;99.90;;;;;;5002351;28;20025;-71
2021/05/13 08:59:50;;;;;;;2.95;1.60;;;16.70;99.90;;;;;;5009760;28;20902;-70
2021/05/13 09:02:18;;;;;;;3.75;1.58;;;16.80;99.90;;;;;;5010715;28;20635;-70
2021/05/13 09:04:46;;;;;;;2.17;1.50;;;16.80;99.90;;;;;;4987678;28;20022;-72
2021/05/13 09:07:30;;;;;;;4.55;1.38;;;17.00;99.90;;;;;;5010251;28;20014;-72
2021/05/13 09:10:06;;;;;;;1.77;1.05;;;17.10;99.90;;;;;;5011604;28;20030;-72
2021/05/13 09:13:00;;;;;;;6.65;1.60;;;17.20;99.90;;;;;;4988554;28;20026;-71
2021/05/13 09:15:28;;;;;;;5.05;1.30;;;17.30;99.90;;;;;;5003862;28;20058;-71
2021/05/13 09:17:56;;;;;;;5.32;1.85;;;17.40;99.90;;;;;;5009661;28;20049;-70
2021/05/13 09:20:27;;;;;;;1.98;1.13;;;17.60;99.90;;;;;;5007410;28;20023;-68
2021/05/13 09:23:11;;;;;;;4.30;1.08;;;17.70;99.90;;;;;;5008200;28;20022;-68
2021/05/13 09:25:37;;;;;;;1.65;1.25;;;17.80;99.90;;;;;;5006827;28;20029;-70
2021/05/13 09:28:03;;;;;;;3.30;2.53;;;17.80;99.90;;;;;;4994233;28;20077;-72
2021/05/13 09:30:29;;;;;;;1.50;0.90;;;17.80;99.90;;;;;;5010078;28;20088;-73
2021/05/13 09:32:58;;;;;;;1.42;0.70;;;18.20;99.90;;;;;;5009795;28;20021;-73
2021/05/13 09:35:33;;;;;;;2.15;1.13;;;18.20;99.90;;;;;;5009207;28;20076;-73
2021/05/13 09:38:07;;;;;;;3.72;1.08;;;18.30;99.90;;;;;;5008525;28;20112;-74
2021/05/13 09:40:41;;;;;;;1.23;0.75;;;18.50;99.90;;;;;;4984303;28;20045;-71
2021/05/13 09:43:23;;;;;;;2.00;0.88;;;18.70;99.90;;;;;;5010379;28;20030;-72
2021/05/13 09:45:50;;;;;;;;;;;18.80;99.90;;;;;;5010845;28;20077;-71
2021/05/13 09:48:40;;;;;;;2.13;0.70;;;18.90;99.90;;;;;;5009282;28;19920;-70
2021/05/13 09:51:22;;;;;;;1.45;0.93;;;18.90;99.90;;;;;;4991829;28;20057;-72
2021/05/13 09:53:49;;;;;;;;;;;19.10;99.90;;;;;;5005635;28;20369;-72
2021/05/13 09:56:29;;;;;;;2.53;1.02;;;19.10;99.90;;;;;;4992982;28;19909;-72
2021/05/13 09:58:55;;;;;;;1.50;0.80;;;19.40;99.90;;;;;;5007983;28;20030;-72
2021/05/13 10:01:21;;;;;;;2.42;0.75;;;19.40;99.90;;;;;;5010732;28;20058;-72
2021/05/13 10:03:48;;;;;;;3.10;1.00;;;19.40;99.90;;;;;;4993465;28;20033;-71
2021/05/13 10:06:14;;;;;;;3.60;1.08;;;19.50;99.90;;;;;;4992841;28;20026;-72
2021/05/13 10:08:43;;;;;;;2.55;0.82;;;19.50;99.90;;;;;;4992443;28;20088;-72
2021/05/13 10:11:10;;;;;;;2.70;1.05;;;19.30;99.90;;;;;;4992202;28;20185;-72
2021/05/13 10:13:36;;;;;;;4.88;0.85;;;19.30;99.90;;;;;;5008920;28;20022;-71
2021/05/13 10:16:03;;;;;;;1.73;1.05;;;19.40;99.90;;;;;;4994613;28;20034;-70
2021/05/13 10:18:46;;;;;;;2.45;1.17;;;19.40;99.90;;;;;;5012229;28;20445;-72
2021/05/13 10:21:20;;;;;;;5.38;1.67;;;19.40;99.90;;;;;;5009760;28;20026;-72
2021/05/13 10:23:48;;;;;;;2.53;1.35;;;19.50;99.90;;;;;;5009634;28;20645;-71
2021/05/13 10:26:33;;;;;;;8.05;1.67;;;19.50;99.90;;;;;;4995232;28;20022;-71
2021/05/13 10:28:59;;;;;;;5.97;2.63;;;19.60;99.90;;;;;;5011033;28;20114;-71
2021/05/13 10:31:35;;;;;;;16.17;6.18;;;19.60;99.90;;;;;;4994609;28;20542;-72
2021/05/13 10:34:01;;;;;;;7.90;2.50;;;19.80;99.90;;;;;;5009017;28;20030;-70
2021/05/13 10:36:27;;;;;;;6.28;2.60;;;19.80;99.90;;;;;;5011459;28;20535;-71
2021/05/13 10:38:55;;;;;;;5.15;2.47;;;20.00;99.90;;;;;;5014004;28;20034;-72
2021/05/13 10:41:31;;;;;;;5.32;2.90;;;19.80;99.90;;;;;;5013307;28;20026;-71
2021/05/13 10:43:58;;;;;;;6.07;1.85;;;19.60;99.90;;;;;;5012772;28;20036;-72
2021/05/13 10:46:29;;;;;;;6.13;2.17;;;19.60;99.90;;;;;;4996233;28;20029;-72
2021/05/13 10:49:14;;;;;;;6.55;1.88;;;19.60;99.90;;;;;;5014160;28;20109;-71
2021/05/13 10:51:40;;;;;;;3.22;1.30;;;19.50;99.90;;;;;;4992859;28;20105;-71
2021/05/13 10:54:07;;;;;;;3.33;2.50;;;19.60;99.90;;;;;;5011050;28;20086;-70
2021/05/13 10:56:36;;;;;;;6.10;1.60;;;19.60;99.90;;;;;;5012430;28;20029;-71
2021/05/13 10:59:07;;;;;;;9.30;2.15;;;19.20;99.90;;;;;;5011359;28;20030;-71
2021/05/13 11:01:39;;;;;;;2.63;1.15;;;19.20;99.90;;;;;;4996168;28;20029;-71
2021/05/13 11:04:23;;;;;;;10.07;1.95;;;19.40;99.90;;;;;;5012939;28;20033;-71
2021/05/13 11:06:56;;;;;;;9.02;1.77;;;19.50;99.90;;;;;;5014284;28;20030;-72
2021/05/13 11:12:11;;;;;;;8.02;2.35;;;19.70;99.90;;;;;;5013536;28;20058;-71
2021/05/13 11:20:23;;;;;;;2.15;1.17;;;19.70;99.90;;;;;;5012779;28;20038;-71
2021/05/13 11:22:52;;;;;;;9.57;1.90;;;19.80;99.90;;;;;;5012310;28;20113;-72
2021/05/13 11:25:18;;;;;;;3.92;1.17;;;19.90;99.90;;;;;;5013028;28;20036;-71
2021/05/13 11:27:44;;;;;;;3.17;1.65;;;20.00;99.90;;;;;;4999915;28;20113;-72
2021/05/13 11:30:10;;;;;;;3.83;1.73;;;20.00;99.90;;;;;;5013830;28;20030;-71
2021/05/13 11:32:36;;;;;;;8.15;1.77;;;19.80;99.90;;;;;;5013480;28;20033;-70
2021/05/13 11:35:03;;;;;;;5.28;1.40;;;19.90;99.90;;;;;;5011891;28;20104;-71
2021/05/13 11:37:32;;;;;;;2.20;1.05;;;20.10;99.90;;;;;;5013186;28;20029;-72
2021/05/13 11:40:21;;;;;;;5.20;1.60;;;20.20;99.90;;;;;;5014651;28;20030;-71
2021/05/13 11:42:47;;;;;;;11.50;2.30;;;20.10;99.90;;;;;;4998152;28;20037;-70
2021/05/13 11:45:22;;;;;;;11.07;2.22;;;20.20;99.90;;;;;;5021437;28;20033;-70
2021/05/13 11:47:49;;;;;;;9.13;1.83;;;20.00;99.90;;;;;;5003843;28;20026;-71
2021/05/13 11:50:29;;;;;;;10.10;1.83;;;19.80;99.90;;;;;;5017627;28;20022;-71
2021/05/13 11:53:05;;;;;;;4.35;1.23;;;19.50;99.90;;;;;;5019148;28;20018;-72
2021/05/13 11:55:32;;;;;;;5.55;1.60;;;19.60;99.90;;;;;;5014567;28;20026;-70
2021/05/13 11:57:57;;;;;;;5.25;1.95;;;19.40;99.90;;;;;;5009017;28;20729;-70
2021/05/13 12:00:23;;;;;;;11.90;2.30;;;19.40;99.90;;;;;;5014382;28;20029;-70
2021/05/13 12:02:49;;;;;;;5.97;2.30;;;19.40;99.90;;;;;;4996954;28;20457;-69
2021/05/13 12:05:15;;;;;;;7.15;2.55;;;19.40;99.90;;;;;;5012323;28;20088;-70
2021/05/13 12:07:40;;;;;;;6.65;1.48;;;19.80;99.90;;;;;;5015181;28;20033;-72
2021/05/13 12:10:07;;;;;;;9.15;1.52;;;19.90;99.90;;;;;;5012214;28;20038;-71
2021/05/13 12:12:33;;;;;;;4.25;1.70;;;20.30;99.90;;;;;;4997306;28;20104;-70
2021/05/13 12:14:59;;;;;;;9.02;2.95;;;20.20;99.90;;;;;;5012924;28;20528;-73
2021/05/13 12:17:24;;;;;;;8.30;2.40;;;20.50;99.90;;;;;;5012019;28;20117;-70
2021/05/13 12:19:50;;;;;;;4.82;2.08;;;20.70;99.90;;;;;;4994138;28;20069;-70
2021/05/13 12:22:18;;;;;;;3.03;1.55;;;21.00;99.90;;;;;;5011954;28;20018;-71
2021/05/13 12:24:45;;;;;;;6.43;1.70;;;21.40;99.90;;;;;;4994852;28;20030;-71
2021/05/13 12:27:14;;;;;;;3.65;1.80;;;21.50;99.90;;;;;;4977559;28;20070;-71
2021/05/13 12:29:42;;;;;;;8.68;2.05;;;21.40;99.90;;;;;;4994600;28;20275;-71
2021/05/13 12:32:07;;;;;;;2.38;1.67;;;21.30;99.90;;;;;;4993742;28;20105;-71
2021/05/13 12:34:44;;;;;;;4.75;1.48;;;21.20;99.90;;;;;;4994511;28;20113;-72
2021/05/13 12:37:20;;;;;;;4.57;2.17;;;21.10;99.90;;;;;;4993402;28;20025;-72
2021/05/13 12:39:46;;;;;;;6.25;1.80;;;21.00;99.90;;;;;;4994603;28;20065;-70
2021/05/13 12:42:29;;;;;;;6.65;1.67;;;20.90;99.90;;;;;;4993012;28;20058;-72
2021/05/13 12:45:24;;;;;;;8.57;1.60;;;20.40;99.90;;;;;;5008293;28;20036;-71
2021/05/13 12:48:02;;;;;;;10.10;1.75;;;20.40;99.90;;;;;;4990452;28;20037;-70
2021/05/13 12:50:29;;;;;;;7.57;2.10;;;20.40;99.90;;;;;;4986887;28;20500;-72
2021/05/13 12:53:28;;;;;;;6.95;1.50;;;20.50;99.90;;;;;;4993265;28;20502;-71
2021/05/13 12:55:54;;;;;;;4.80;2.10;;;20.50;99.90;;;;;;4966853;28;20118;-73
2021/05/13 12:58:30;;;;;;;7.75;1.77;;;20.20;99.90;;;;;;4988634;28;20072;-71
2021/05/13 13:01:04;;;;;;;5.13;1.70;;;19.90;99.90;;;;;;5008235;28;20497;-71
2021/05/13 13:03:34;;;;;;;5.53;2.63;;;19.60;99.90;;;;;;4999207;28;20030;-72
2021/05/13 13:06:11;;;;;;;5.15;2.25;;;19.60;99.90;;;;;;5011187;28;20443;-72
2021/05/13 13:08:48;;;;;;;6.70;1.92;;;19.60;99.90;;;;;;5010376;28;20022;-72